Time;durP1;ratioP1;P1;durP2;ratioP2;P2;SDS_P1;SDS_P2;PMS_P1;PMS_P2;Temp;Humidity;BMP_temperature;BMP_pressure;BME280_temperature;BME280_humidity;BME280_pressure;Samples;Min_cycle;Max_cycle;Signal;HPM_P1;HPM_P2
2022/04/08 00:00:58;;;;;;;12.68;1.77;;;5.80;99.90;;;;;;4982489;28;189963;-76
2022/04/08 00:03:26;;;;;;;14.07;1.70;;;5.80;99.90;;;;;;5029171;28;20055;-76
2022/04/08 00:05:54;;;;;;;11.32;1.73;;;5.80;99.90;;;;;;4951272;28;253531;-76
2022/04/08 00:08:21;;;;;;;12.60;1.60;;;5.80;99.90;;;;;;5026820;28;20057;-76
2022/04/08 00:10:48;;;;;;;11.82;1.80;;;5.70;99.90;;;;;;4978629;28;217723;-77
2022/04/08 00:13:15;;;;;;;13.35;1.75;;;5.70;99.90;;;;;;5024635;28;20516;-76
2022/04/08 00:15:41;;;;;;;14.40;1.67;;;5.70;99.90;;;;;;4982134;28;138454;-77
2022/04/08 00:18:08;;;;;;;15.50;1.60;;;5.70;99.90;;;;;;5023296;28;20394;-77
2022/04/08 00:20:35;;;;;;;12.63;1.55;;;5.70;99.90;;;;;;4988509;28;87487;-75
2022/04/08 00:23:04;;;;;;;14.23;1.83;;;5.60;99.90;;;;;;5024122;28;20048;-76
2022/04/08 00:25:30;;;;;;;11.70;1.70;;;5.60;99.90;;;;;;5001366;28;145303;-77
2022/04/08 00:27:57;;;;;;;10.20;1.45;;;5.60;99.90;;;;;;5018791;28;20060;-76
2022/04/08 00:30:23;;;;;;;12.30;1.45;;;5.60;99.90;;;;;;5034416;28;272456;-76
2022/04/08 00:32:51;;;;;;;10.30;1.42;;;5.50;99.90;;;;;;4981793;28;20048;-76
2022/04/08 00:35:17;;;;;;;10.25;1.25;;;5.50;99.90;;;;;;5015734;28;23028;-77
2022/04/08 00:37:43;;;;;;;8.70;1.15;;;5.50;99.90;;;;;;4986460;28;20045;-76
2022/04/08 00:40:10;;;;;;;8.73;1.02;;;5.40;99.90;;;;;;5019440;28;20514;-77
2022/04/08 00:42:37;;;;;;;6.18;0.88;;;5.30;99.90;;;;;;4976844;28;20391;-76
2022/04/08 00:45:05;;;;;;;5.85;0.80;;;5.10;99.90;;;;;;5013649;28;223778;-77
2022/04/08 00:47:35;;;;;;;8.00;1.08;;;4.90;99.90;;;;;;5021122;28;20052;-77
2022/04/08 00:50:03;;;;;;;6.55;0.90;;;4.90;99.90;;;;;;4998658;28;233612;-76
2022/04/08 00:52:31;;;;;;;7.07;0.90;;;4.80;99.90;;;;;;5013826;28;20049;-77
2022/04/08 00:54:57;;;;;;;9.23;1.23;;;4.80;99.90;;;;;;5012787;28;241660;-77
2022/04/08 00:57:24;;;;;;;10.98;1.20;;;4.80;99.90;;;;;;4975695;28;20045;-77
2022/04/08 00:59:50;;;;;;;8.70;1.10;;;4.80;99.90;;;;;;5034167;28;88361;-76
2022/04/08 01:02:17;;;;;;;12.00;1.38;;;4.80;99.90;;;;;;4973300;28;20506;-80
2022/04/08 01:04:43;;;;;;;10.43;1.30;;;4.80;99.90;;;;;;5001297;28;132124;-77
2022/04/08 01:07:09;;;;;;;12.63;1.52;;;4.80;99.90;;;;;;4978222;28;20034;-78
2022/04/08 01:09:35;;;;;;;11.38;1.50;;;4.70;99.90;;;;;;5034312;28;119392;-78
2022/04/08 01:12:02;;;;;;;7.88;1.30;;;4.70;99.90;;;;;;4992080;28;20441;-76
2022/04/08 01:14:28;;;;;;;12.25;1.58;;;4.70;99.90;;;;;;5020100;28;208791;-76
2022/04/08 01:16:54;;;;;;;13.05;1.70;;;4.60;99.90;;;;;;4991787;28;20048;-76
2022/04/08 01:19:20;;;;;;;10.65;1.33;;;4.60;99.90;;;;;;5006593;28;152185;-77
2022/04/08 01:21:46;;;;;;;7.60;1.10;;;4.40;99.90;;;;;;4993034;28;20045;-78
2022/04/08 01:24:15;;;;;;;8.90;1.48;;;4.30;99.90;;;;;;5012437;28;262066;-77
2022/04/08 01:26:41;;;;;;;11.02;1.63;;;4.20;99.90;;;;;;4999454;28;20049;-76
2022/04/08 01:29:08;;;;;;;13.03;1.40;;;4.20;99.90;;;;;;5010203;28;256883;-76
2022/04/08 01:31:34;;;;;;;10.55;1.33;;;4.20;99.90;;;;;;5004015;28;20041;-77
2022/04/08 01:34:00;;;;;;;12.20;1.58;;;4.20;99.90;;;;;;5033197;28;252858;-78
2022/04/08 01:36:27;;;;;;;9.40;1.70;;;4.20;99.90;;;;;;4993793;28;20033;-77
2022/04/08 01:38:54;;;;;;;11.95;1.50;;;4.20;99.90;;;;;;5000039;28;264543;-76
2022/04/08 01:41:20;;;;;;;13.82;1.55;;;4.20;99.90;;;;;;4977526;28;20048;-76
2022/04/08 01:43:46;;;;;;;15.80;1.50;;;4.20;99.90;;;;;;5037110;28;20049;-77
2022/04/08 01:46:12;;;;;;;13.48;1.60;;;4.20;99.90;;;;;;4986779;28;204431;-77
2022/04/08 01:48:38;;;;;;;14.05;1.60;;;4.20;99.90;;;;;;5041532;28;20053;-76
2022/04/08 01:51:04;;;;;;;11.63;1.83;;;4.20;99.90;;;;;;4973302;28;186389;-75
2022/04/08 01:53:30;;;;;;;10.52;1.33;;;4.20;99.90;;;;;;5021051;28;20519;-77
2022/04/08 01:55:57;;;;;;;12.52;1.60;;;4.20;99.90;;;;;;4978985;28;107978;-75
2022/04/08 01:58:23;;;;;;;11.15;1.75;;;4.10;99.90;;;;;;5019871;28;20056;-75
2022/04/08 02:00:49;;;;;;;9.40;1.25;;;4.20;99.90;;;;;;4980522;28;162388;-75
2022/04/08 02:03:20;;;;;;;13.25;1.30;;;4.10;99.90;;;;;;5030832;28;20517;-75
2022/04/08 02:05:46;;;;;;;10.65;1.55;;;4.10;99.90;;;;;;4962899;28;247075;-74
2022/04/08 02:08:13;;;;;;;11.35;1.45;;;4.00;99.90;;;;;;5025660;28;20076;-74
2022/04/08 02:10:39;;;;;;;10.60;1.40;;;4.00;99.90;;;;;;4983982;28;86888;-75
2022/04/08 02:13:05;;;;;;;13.57;1.40;;;3.90;99.90;;;;;;5039978;28;20516;-75
2022/04/08 02:15:33;;;;;;;12.90;1.98;;;4.00;99.90;;;;;;4974257;28;115457;-76
2022/04/08 02:18:01;;;;;;;11.82;1.70;;;3.90;99.90;;;;;;5023247;28;20052;-75
2022/04/08 02:20:30;;;;;;;11.85;1.55;;;3.90;99.90;;;;;;5002045;28;46027;-75
2022/04/08 02:22:57;;;;;;;12.90;1.73;;;3.90;99.90;;;;;;5037456;22;20053;-74
2022/04/08 02:25:23;;;;;;;12.02;1.30;;;3.80;99.90;;;;;;5002428;28;64985;-74
2022/04/08 02:27:49;;;;;;;15.13;1.80;;;3.90;99.90;;;;;;4972654;28;20407;-73
2022/04/08 02:30:16;;;;;;;11.55;1.52;;;3.80;99.90;;;;;;5001610;28;88711;-74
2022/04/08 02:32:42;;;;;;;15.00;2.13;;;3.80;99.90;;;;;;4964393;28;20043;-74
2022/04/08 02:35:08;;;;;;;16.02;2.20;;;3.80;99.90;;;;;;4983498;28;79131;-73
2022/04/08 02:37:34;;;;;;;13.18;1.65;;;3.80;99.90;;;;;;4958509;28;20045;-74
2022/04/08 02:40:00;;;;;;;11.05;1.70;;;3.80;99.90;;;;;;4986640;28;171480;-74
2022/04/08 02:42:30;;;;;;;15.02;2.10;;;3.90;99.90;;;;;;4945734;28;20160;-74
2022/04/08 02:44:57;;;;;;;16.73;2.08;;;3.90;99.90;;;;;;4990281;28;150913;-74
2022/04/08 02:47:23;;;;;;;14.60;2.05;;;3.90;99.90;;;;;;4963323;28;20127;-75
2022/04/08 02:49:50;;;;;;;17.85;2.20;;;3.90;99.90;;;;;;4992487;28;107332;-74
2022/04/08 02:52:16;;;;;;;12.75;1.58;;;3.80;99.90;;;;;;4964524;28;20050;-74
2022/04/08 02:54:42;;;;;;;15.10;2.53;;;3.80;99.90;;;;;;4994376;28;62962;-75
2022/04/08 02:57:09;;;;;;;12.38;1.70;;;3.80;99.90;;;;;;4960968;28;20422;-75
2022/04/08 02:59:35;;;;;;;13.77;1.85;;;3.80;99.90;;;;;;4982981;28;245549;-74
2022/04/08 03:02:01;;;;;;;12.75;1.70;;;3.90;99.90;;;;;;4964167;28;20049;-74
2022/04/08 03:04:27;;;;;;;19.73;2.10;;;3.90;99.90;;;;;;4969049;28;211782;-74
2022/04/08 03:06:54;;;;;;;16.33;1.90;;;3.90;99.90;;;;;;4940653;28;20053;-74
2022/04/08 03:09:21;;;;;;;14.27;1.92;;;3.90;99.90;;;;;;4979748;28;134276;-74
2022/04/08 03:11:47;;;;;;;16.92;1.90;;;3.90;99.90;;;;;;4963064;28;20438;-75
2022/04/08 03:14:14;;;;;;;16.65;2.05;;;3.80;99.90;;;;;;4972958;28;83991;-74
2022/04/08 03:16:40;;;;;;;19.58;2.28;;;3.80;99.90;;;;;;4974312;28;20480;-75
2022/04/08 03:19:06;;;;;;;13.00;1.85;;;3.70;99.90;;;;;;4982666;28;272232;-74
2022/04/08 03:21:32;;;;;;;13.10;1.95;;;3.70;99.90;;;;;;4947764;28;20093;-75
2022/04/08 03:23:58;;;;;;;17.67;2.35;;;3.60;99.90;;;;;;4977306;28;264058;-74
2022/04/08 03:26:25;;;;;;;15.43;2.08;;;3.60;99.90;;;;;;4954263;28;20053;-74
2022/04/08 03:28:51;;;;;;;16.05;1.70;;;3.60;99.90;;;;;;4987009;28;270904;-73
2022/04/08 03:31:17;;;;;;;12.48;1.70;;;3.60;99.90;;;;;;4969710;28;20053;-74
2022/04/08 03:33:43;;;;;;;15.40;2.35;;;3.50;99.90;;;;;;4991763;28;20779;-74
2022/04/08 03:36:09;;;;;;;15.23;2.10;;;3.50;99.90;;;;;;4956213;28;270198;-74
2022/04/08 03:38:35;;;;;;;17.52;2.38;;;3.50;99.90;;;;;;5000874;28;20669;-74
2022/04/08 03:41:01;;;;;;;16.90;2.22;;;3.50;99.90;;;;;;4970468;28;263301;-74
2022/04/08 03:43:28;;;;;;;17.63;2.10;;;3.50;99.90;;;;;;5014000;28;20502;-74
2022/04/08 03:45:54;;;;;;;21.17;2.50;;;3.60;99.90;;;;;;4939486;28;139305;-74
2022/04/08 03:48:20;;;;;;;14.82;1.80;;;3.60;99.90;;;;;;4992820;28;20429;-74
2022/04/08 03:50:46;;;;;;;19.30;2.65;;;3.70;99.90;;;;;;4951130;28;278525;-74
2022/04/08 03:53:13;;;;;;;21.75;2.92;;;3.70;99.90;;;;;;4987105;28;21045;-76
2022/04/08 03:55:39;;;;;;;16.40;2.05;;;3.90;99.90;;;;;;4964681;28;62053;-75
2022/04/08 03:58:05;;;;;;;11.73;1.88;;;3.90;99.90;;;;;;5017418;28;20502;-76
2022/04/08 04:00:31;;;;;;;9.95;1.50;;;3.80;99.90;;;;;;4949222;28;40174;-75
2022/04/08 04:02:57;;;;;;;9.02;1.40;;;3.50;99.90;;;;;;4996661;28;20053;-75
2022/04/08 04:05:24;;;;;;;11.05;1.85;;;3.30;99.90;;;;;;4938925;28;255760;-74
2022/04/08 04:07:50;;;;;;;6.95;1.20;;;3.20;99.90;;;;;;4939101;28;20572;-74
2022/04/08 04:10:16;;;;;;;6.95;1.48;;;3.20;99.90;;;;;;4958220;28;250065;-74
2022/04/08 04:12:42;;;;;;;10.10;1.50;;;3.10;99.90;;;;;;4941347;28;20054;-74
2022/04/08 04:15:09;;;;;;;9.05;1.45;;;3.10;99.90;;;;;;4962395;28;26690;-74
2022/04/08 04:17:36;;;;;;;6.57;1.20;;;3.10;99.90;;;;;;4941443;28;20053;-75
2022/04/08 04:20:04;;;;;;;7.93;1.23;;;3.10;99.90;;;;;;4960049;28;105925;-73
2022/04/08 04:22:30;;;;;;;5.30;1.27;;;3.10;99.90;;;;;;4963114;28;20053;-73
2022/04/08 04:24:56;;;;;;;6.05;1.15;;;3.00;99.90;;;;;;4981718;28;144570;-74
2022/04/08 04:27:22;;;;;;;7.78;1.20;;;3.00;99.90;;;;;;4957940;28;20060;-75
2022/04/08 04:29:48;;;;;;;8.60;1.48;;;3.00;99.90;;;;;;4964071;28;94150;-74
2022/04/08 04:32:17;;;;;;;5.28;1.13;;;3.00;99.90;;;;;;4958645;28;20457;-74
2022/04/08 04:34:43;;;;;;;8.52;1.40;;;2.90;99.90;;;;;;4969332;28;20056;-74
2022/04/08 04:37:09;;;;;;;5.90;1.10;;;2.90;99.90;;;;;;4927394;28;20050;-74
2022/04/08 04:39:36;;;;;;;5.93;1.65;;;2.80;99.90;;;;;;4971720;28;245246;-74
2022/04/08 04:42:03;;;;;;;6.97;1.35;;;2.80;99.90;;;;;;4964242;28;20033;-74
2022/04/08 04:44:29;;;;;;;6.60;1.30;;;2.80;99.90;;;;;;4966903;28;168407;-74
2022/04/08 04:46:55;;;;;;;6.00;1.20;;;2.70;99.90;;;;;;4948775;28;20538;-74
2022/04/08 04:49:22;;;;;;;6.10;1.33;;;2.70;99.90;;;;;;4984933;28;20061;-74
2022/04/08 04:51:49;;;;;;;12.25;1.40;;;2.70;99.90;;;;;;4952012;28;20050;-74
2022/04/08 04:54:16;;;;;;;6.65;1.23;;;2.60;99.90;;;;;;4985682;28;20245;-74
2022/04/08 04:56:43;;;;;;;10.73;1.48;;;2.60;99.90;;;;;;4972915;28;20072;-74
2022/04/08 04:59:09;;;;;;;10.52;1.60;;;2.60;99.90;;;;;;4980742;28;261433;-74
2022/04/08 05:01:35;;;;;;;10.38;1.83;;;2.70;99.90;;;;;;4951614;28;20101;-74
2022/04/08 05:04:02;;;;;;;9.63;1.50;;;2.80;99.90;;;;;;4946095;28;271262;-73
2022/04/08 05:06:28;;;;;;;7.85;1.42;;;2.80;99.90;;;;;;4947668;28;20039;-73
2022/04/08 05:08:54;;;;;;;9.70;1.67;;;2.90;99.90;;;;;;4955499;28;270236;-73
2022/04/08 05:11:20;;;;;;;9.90;2.22;;;3.00;99.90;;;;;;4954734;28;20076;-74
2022/04/08 05:13:46;;;;;;;10.82;1.80;;;3.10;99.90;;;;;;4994616;28;20053;-74
2022/04/08 05:16:12;;;;;;;10.00;1.77;;;3.20;99.90;;;;;;4932576;28;251082;-75
2022/04/08 05:18:39;;;;;;;8.85;1.85;;;3.30;99.90;;;;;;4985340;28;20057;-75
2022/04/08 05:21:05;;;;;;;10.65;2.10;;;3.30;99.90;;;;;;4955033;28;155136;-74
2022/04/08 05:23:32;;;;;;;7.07;1.98;;;3.40;99.90;;;;;;4992309;28;20065;-72
2022/04/08 05:25:59;;;;;;;8.95;1.85;;;3.40;99.90;;;;;;4960446;28;92717;-72
2022/04/08 05:28:25;;;;;;;9.15;1.92;;;3.50;99.90;;;;;;4987121;28;20046;-74
2022/04/08 05:30:52;;;;;;;10.95;1.77;;;3.50;99.90;;;;;;4953510;28;234241;-74
2022/04/08 05:33:18;;;;;;;8.85;1.88;;;3.50;99.90;;;;;;4979037;28;20058;-73
2022/04/08 05:35:45;;;;;;;8.90;1.80;;;3.60;99.90;;;;;;4966031;28;257984;-74
2022/04/08 05:38:11;;;;;;;10.30;2.33;;;3.60;99.90;;;;;;4985383;28;20438;-73
2022/04/08 05:40:38;;;;;;;9.90;1.70;;;3.60;99.90;;;;;;4949201;28;48521;-74
2022/04/08 05:43:04;;;;;;;16.10;2.20;;;3.60;99.90;;;;;;4996770;28;20054;-73
2022/04/08 05:45:30;;;;;;;12.85;1.88;;;3.60;99.90;;;;;;4946123;28;213287;-73
2022/04/08 05:48:05;;;;;;;12.65;1.92;;;3.60;99.90;;;;;;4975534;28;20054;-74
2022/04/08 05:50:31;;;;;;;16.20;2.28;;;3.60;99.90;;;;;;4946781;28;109307;-73
2022/04/08 05:52:58;;;;;;;12.20;2.08;;;3.60;99.90;;;;;;4998566;28;20474;-74
2022/04/08 05:55:24;;;;;;;10.40;2.22;;;3.70;99.90;;;;;;4992168;28;258070;-73
2022/04/08 05:57:53;;;;;;;12.45;1.80;;;3.70;99.90;;;;;;4956468;28;20042;-73
2022/04/08 06:00:20;;;;;;;12.30;2.00;;;3.80;99.90;;;;;;4987945;28;70833;-73
2022/04/08 06:02:47;;;;;;;8.43;1.70;;;3.80;99.90;;;;;;4970786;28;20042;-73
2022/04/08 06:05:21;;;;;;;9.02;1.75;;;3.90;99.90;;;;;;4974954;28;124183;-73
2022/04/08 06:07:54;;;;;;;10.45;2.03;;;4.00;99.90;;;;;;4947064;28;20045;-74
2022/04/08 06:10:23;;;;;;;11.18;1.65;;;4.10;99.90;;;;;;4987280;28;165086;-73
2022/04/08 06:12:50;;;;;;;8.15;1.73;;;4.20;99.90;;;;;;4953827;28;20152;-73
2022/04/08 06:15:17;;;;;;;8.43;1.83;;;4.20;99.90;;;;;;4979391;28;104298;-74
2022/04/08 06:17:44;;;;;;;8.68;1.75;;;4.20;99.90;;;;;;4961385;28;21126;-73
2022/04/08 06:20:13;;;;;;;8.23;1.75;;;4.20;99.90;;;;;;4968813;28;75721;-74
2022/04/08 06:22:39;;;;;;;7.68;1.88;;;4.30;99.90;;;;;;4920192;28;20031;-73
2022/04/08 06:25:08;;;;;;;8.18;1.67;;;4.30;99.90;;;;;;4962531;28;207652;-74
2022/04/08 06:27:34;;;;;;;9.60;1.75;;;4.40;99.90;;;;;;4934522;28;20070;-73
2022/04/08 06:30:01;;;;;;;7.18;1.80;;;4.40;99.90;;;;;;4972078;28;121445;-73
2022/04/08 06:32:27;;;;;;;9.38;1.77;;;5.00;99.90;;;;;;4982774;28;20049;-74
2022/04/08 06:34:53;;;;;;;11.18;1.95;;;5.50;99.90;;;;;;4979561;28;164027;-72
2022/04/08 06:37:19;;;;;;;9.57;1.52;;;5.80;99.90;;;;;;4947486;28;20117;-74
2022/04/08 06:39:47;;;;;;;7.18;1.40;;;6.10;99.90;;;;;;4984331;28;20062;-74
2022/04/08 06:42:14;;;;;;;10.93;1.77;;;6.30;99.90;;;;;;4968401;28;20042;-73
2022/04/08 06:44:40;;;;;;;7.53;1.30;;;6.00;99.90;;;;;;4976593;28;20057;-74
2022/04/08 06:47:06;;;;;;;8.65;1.50;;;6.10;99.90;;;;;;4952449;28;20046;-73
2022/04/08 06:49:32;;;;;;;9.75;1.83;;;6.20;99.90;;;;;;4965384;28;76468;-73
2022/04/08 06:51:58;;;;;;;7.03;1.30;;;5.90;99.90;;;;;;4947673;28;20058;-74
2022/04/08 06:54:25;;;;;;;8.18;1.30;;;5.90;99.90;;;;;;4971173;28;20057;-74
2022/04/08 06:56:52;;;;;;;6.88;1.38;;;6.00;99.90;;;;;;4964674;28;20041;-75
2022/04/08 06:59:18;;;;;;;8.00;1.58;;;5.90;99.90;;;;;;4958544;28;39822;-72
2022/04/08 07:01:44;;;;;;;8.70;1.40;;;5.60;99.90;;;;;;4966974;28;20037;-74
2022/04/08 07:04:10;;;;;;;7.85;1.67;;;5.80;99.90;;;;;;4976650;28;256290;-73
2022/04/08 07:06:36;;;;;;;9.10;1.40;;;6.30;99.90;;;;;;4984938;28;20061;-73
2022/04/08 07:09:02;;;;;;;11.20;1.60;;;6.10;99.90;;;;;;4984939;28;266609;-72
2022/04/08 07:11:28;;;;;;;11.52;1.60;;;6.40;99.90;;;;;;4979990;28;20041;-72
2022/04/08 07:13:54;;;;;;;9.10;1.57;;;6.90;99.90;;;;;;4982612;28;269283;-72
2022/04/08 07:16:21;;;;;;;6.28;1.45;;;6.80;99.90;;;;;;4956168;28;20038;-72
2022/04/08 07:18:47;;;;;;;7.95;1.55;;;6.40;99.90;;;;;;4999065;28;20045;-72
2022/04/08 07:21:13;;;;;;;9.95;1.42;;;6.10;99.90;;;;;;4945714;28;106029;-72
2022/04/08 07:23:39;;;;;;;10.45;1.70;;;5.90;99.90;;;;;;4985514;28;20065;-72
2022/04/08 07:26:05;;;;;;;8.00;1.38;;;5.80;99.90;;;;;;4937965;28;107099;-73
2022/04/08 07:28:32;;;;;;;9.23;1.58;;;5.60;99.90;;;;;;4991235;28;20064;-73
2022/04/08 07:30:58;;;;;;;7.97;1.52;;;5.60;99.90;;;;;;4949814;28;127554;-73
2022/04/08 07:33:24;;;;;;;7.07;1.20;;;6.10;99.90;;;;;;4965052;28;20054;-73
2022/04/08 07:35:50;;;;;;;11.02;1.83;;;6.70;99.90;;;;;;4931008;28;85899;-73
2022/04/08 07:38:16;;;;;;;7.72;1.50;;;7.20;99.90;;;;;;4993408;28;20204;-73
2022/04/08 07:40:43;;;;;;;9.48;1.80;;;7.80;99.90;;;;;;4937003;28;215689;-73
2022/04/08 07:43:10;;;;;;;8.40;1.40;;;8.20;99.90;;;;;;4974722;28;20058;-76
2022/04/08 07:45:36;;;;;;;7.32;1.60;;;8.50;99.90;;;;;;4952579;28;259062;-75
2022/04/08 07:48:02;;;;;;;11.18;1.80;;;8.30;99.90;;;;;;4998230;28;20820;-72
2022/04/08 07:50:29;;;;;;;8.13;1.50;;;7.80;99.90;;;;;;4956393;28;191719;-73
2022/04/08 07:52:55;;;;;;;9.45;1.50;;;7.20;99.90;;;;;;4988968;28;20041;-73
2022/04/08 07:55:24;;;;;;;10.25;1.52;;;6.70;99.90;;;;;;4964548;28;92186;-73
2022/04/08 07:57:51;;;;;;;11.32;1.70;;;6.40;99.90;;;;;;4954187;28;20050;-73
2022/04/08 08:00:25;;;;;;;10.10;1.60;;;6.40;99.90;;;;;;4972033;28;32940;-73
2022/04/08 08:02:51;;;;;;;9.50;1.70;;;6.80;99.90;;;;;;4945164;28;20057;-73
2022/04/08 08:05:20;;;;;;;9.23;1.73;;;7.40;99.90;;;;;;4941442;28;232262;-73
2022/04/08 08:07:47;;;;;;;10.35;1.80;;;7.90;99.90;;;;;;4950148;28;20045;-73
2022/04/08 08:10:15;;;;;;;9.00;1.60;;;8.20;99.90;;;;;;4981856;28;174132;-73
2022/04/08 08:12:41;;;;;;;10.93;1.85;;;8.50;99.90;;;;;;4972529;28;20433;-73
2022/04/08 08:15:08;;;;;;;8.52;2.15;;;8.80;99.90;;;;;;4982740;28;197330;-73
2022/04/08 08:17:34;;;;;;;12.77;2.30;;;8.90;99.90;;;;;;4963013;28;20038;-73
2022/04/08 08:20:00;;;;;;;12.88;2.10;;;8.90;99.90;;;;;;4990026;28;146030;-73
2022/04/08 08:22:26;;;;;;;16.23;2.80;;;8.40;99.90;;;;;;4982599;22;20061;-75
2022/04/08 08:24:52;;;;;;;11.63;1.88;;;8.60;99.90;;;;;;4997029;28;85352;-76
2022/04/08 08:27:18;;;;;;;9.13;1.92;;;8.40;99.90;;;;;;4976886;28;20045;-76
2022/04/08 08:29:44;;;;;;;14.02;2.38;;;8.60;99.90;;;;;;4985738;28;119468;-76
2022/04/08 08:32:10;;;;;;;11.82;2.42;;;8.90;99.90;;;;;;5002261;28;20041;-76
2022/04/08 08:34:37;;;;;;;13.70;2.53;;;8.80;99.90;;;;;;5011926;28;241450;-76
2022/04/08 08:37:03;;;;;;;10.43;2.05;;;9.30;99.90;;;;;;4971215;28;20037;-76
2022/04/08 08:39:30;;;;;;;9.93;2.13;;;9.30;99.90;;;;;;5007899;28;261662;-77
2022/04/08 08:41:57;;;;;;;8.52;1.60;;;9.60;99.90;;;;;;4980459;28;20042;-76
2022/04/08 08:44:23;;;;;;;10.05;1.70;;;9.90;99.90;;;;;;4992441;28;127235;-76
2022/04/08 08:46:51;;;;;;;10.00;1.92;;;9.40;99.90;;;;;;4978253;28;20041;-76
2022/04/08 08:49:19;;;;;;;10.15;1.63;;;9.00;99.90;;;;;;4989785;28;275302;-76
2022/04/08 08:51:55;;;;;;;9.52;1.73;;;8.90;99.90;;;;;;4975091;28;20053;-76
2022/04/08 08:54:21;;;;;;;8.80;1.63;;;9.60;99.90;;;;;;4988398;28;107050;-75
2022/04/08 08:56:48;;;;;;;10.82;1.60;;;10.00;99.90;;;;;;4983062;28;20033;-75
2022/04/08 08:59:15;;;;;;;9.60;1.30;;;10.10;99.90;;;;;;4996226;28;50027;-76
2022/04/08 09:01:41;;;;;;;8.98;1.90;;;10.00;99.90;;;;;;4982487;28;20052;-75
2022/04/08 09:04:07;;;;;;;10.20;1.55;;;9.60;99.90;;;;;;4973326;28;252057;-77
2022/04/08 09:06:41;;;;;;;12.10;1.88;;;9.10;99.90;;;;;;4952975;28;20746;-75
2022/04/08 09:09:08;;;;;;;12.13;1.80;;;8.70;99.90;;;;;;4982782;28;262511;-76
2022/04/08 09:11:34;;;;;;;10.35;1.92;;;8.60;99.90;;;;;;4991672;28;20045;-76
2022/04/08 09:14:03;;;;;;;10.80;1.70;;;8.40;99.90;;;;;;4982365;28;267715;-76
2022/04/08 09:16:35;;;;;;;10.38;1.70;;;8.30;99.90;;;;;;4964772;28;20045;-76
2022/04/08 09:19:12;;;;;;;11.00;1.67;;;8.20;99.90;;;;;;4971938;28;250456;-76
2022/04/08 09:21:38;;;;;;;13.70;1.70;;;8.00;99.90;;;;;;4984832;28;20052;-75
2022/04/08 09:24:06;;;;;;;9.27;1.70;;;8.00;99.90;;;;;;4992082;28;246981;-75
2022/04/08 09:26:36;;;;;;;13.20;2.20;;;8.00;99.90;;;;;;4974777;28;20079;-74
2022/04/08 09:29:04;;;;;;;12.70;2.10;;;8.10;99.90;;;;;;4989185;28;263238;-76
2022/04/08 09:31:30;;;;;;;11.15;1.85;;;8.10;99.90;;;;;;4963730;28;20045;-75
2022/04/08 09:33:56;;;;;;;12.85;1.98;;;8.20;99.90;;;;;;4991345;28;267467;-75
2022/04/08 09:36:27;;;;;;;14.43;2.00;;;8.30;99.90;;;;;;4965987;28;20051;-76
2022/04/08 09:38:53;;;;;;;;;;;8.20;99.90;;;;;;4988016;28;270189;-76
2022/04/08 09:41:19;;;;;;;15.18;2.00;;;8.20;99.90;;;;;;4975282;28;19992;-76
2022/04/08 09:43:45;;;;;;;11.05;2.13;;;8.90;99.90;;;;;;5002521;28;20049;-75
2022/04/08 09:46:18;;;;;;;12.77;2.10;;;9.60;99.90;;;;;;4963127;28;243520;-76
2022/04/08 09:48:45;;;;;;;13.80;2.30;;;10.40;99.90;;;;;;5011639;28;20050;-75
2022/04/08 09:51:21;;;;;;;10.52;1.95;;;10.80;99.90;;;;;;4967746;28;99844;-75
2022/04/08 09:53:58;;;;;;;10.93;1.60;;;10.30;99.90;;;;;;4994632;28;20053;-75
2022/04/08 09:56:27;;;;;;;14.68;1.90;;;9.90;99.90;;;;;;4955680;28;20452;-75
2022/04/08 09:59:01;;;;;;;12.57;2.20;;;10.20;99.90;;;;;;4991090;28;252367;-74
2022/04/08 10:01:28;;;;;;;12.65;1.80;;;10.20;99.90;;;;;;4969786;28;20049;-75
2022/04/08 10:03:55;;;;;;;9.43;1.65;;;9.70;99.90;;;;;;4962027;28;262576;-74
2022/04/08 10:06:23;;;;;;;10.50;1.77;;;9.70;99.90;;;;;;4977580;28;20038;-75
2022/04/08 10:08:50;;;;;;;10.57;1.67;;;9.80;99.90;;;;;;5002121;28;20041;-75
2022/04/08 10:11:29;;;;;;;7.95;1.40;;;9.90;99.90;;;;;;4965180;28;20056;-75
2022/04/08 10:14:10;;;;;;;11.27;1.38;;;9.90;99.90;;;;;;4987030;28;258938;-75
2022/04/08 10:16:40;;;;;;;;;;;10.30;99.90;;;;;;4991869;28;20069;-75
2022/04/08 10:19:07;;;;;;;9.93;1.67;;;10.70;99.00;;;;;;4999892;28;255890;-75
2022/04/08 10:21:39;;;;;;;9.00;1.70;;;11.10;99.60;;;;;;4990839;28;20060;-76
2022/04/08 10:24:13;;;;;;;10.70;1.90;;;11.50;97.70;;;;;;4976137;28;273666;-75
2022/04/08 10:27:05;;;;;;;10.13;1.70;;;11.40;99.00;;;;;;4995902;28;20414;-75
2022/04/08 10:29:33;;;;;;;11.63;1.60;;;11.80;98.10;;;;;;4991328;28;178945;-74
2022/04/08 10:32:02;;;;;;;9.23;1.52;;;11.70;98.40;;;;;;4985947;28;20041;-75
2022/04/08 10:34:32;;;;;;;9.52;1.65;;;11.10;98.20;;;;;;4974516;28;216564;-74
2022/04/08 10:37:01;;;;;;;10.63;1.98;;;11.20;98.00;;;;;;4975248;28;20052;-75
2022/04/08 10:39:27;;;;;;;13.80;1.80;;;10.80;98.40;;;;;;4991661;28;65575;-75
2022/04/08 10:41:59;;;;;;;10.55;2.08;;;10.60;99.90;;;;;;4987214;28;20522;-75
2022/04/08 10:44:39;;;;;;;10.85;1.90;;;10.30;99.90;;;;;;4993393;28;204145;-75
2022/04/08 10:47:16;;;;;;;10.05;1.80;;;10.20;99.90;;;;;;5002869;28;20108;-74
2022/04/08 10:49:53;;;;;;;9.63;1.70;;;10.00;99.90;;;;;;4990625;28;237900;-75
2022/04/08 10:52:27;;;;;;;9.20;1.80;;;10.50;99.90;;;;;;5006155;28;20450;-75
2022/04/08 10:55:08;;;;;;;13.35;2.42;;;10.80;99.90;;;;;;4991854;28;113755;-75
2022/04/08 10:57:58;;;;;;;12.43;2.08;;;11.10;99.70;;;;;;5009890;28;20055;-75
2022/04/08 11:00:25;;;;;;;11.27;1.70;;;11.40;98.40;;;;;;5011892;28;20046;-75
2022/04/08 11:02:55;;;;;;;9.98;1.58;;;11.40;98.90;;;;;;4941157;28;20045;-75
2022/04/08 11:05:22;;;;;;;8.63;1.50;;;11.50;98.30;;;;;;4981403;28;257464;-76
2022/04/08 11:07:53;;;;;;;12.75;1.90;;;11.80;99.10;;;;;;4981014;28;20852;-76
2022/04/08 11:10:21;;;;;;;8.25;1.33;;;11.80;98.70;;;;;;4999726;28;265009;-76
2022/04/08 11:12:50;;;;;;;7.80;1.40;;;12.10;99.70;;;;;;5007530;28;20044;-73
2022/04/08 11:15:18;;;;;;;9.05;1.70;;;12.80;99.60;;;;;;4991940;28;21691;-74
2022/04/08 11:17:46;;;;;;;11.15;1.60;;;12.80;99.10;;;;;;4991078;28;20041;-75
2022/04/08 11:20:20;;;;;;;8.68;1.40;;;12.40;97.10;;;;;;4994153;28;256282;-76
2022/04/08 11:22:52;;;;;;;9.15;1.20;;;11.80;97.30;;;;;;4990127;28;20037;-75
2022/04/08 11:25:25;;;;;;;7.53;1.20;;;10.80;97.70;;;;;;4994793;28;40934;-75
2022/04/08 11:28:10;;;;;;;7.57;1.10;;;9.70;99.90;;;;;;4972211;28;20044;-75
2022/04/08 11:30:39;;;;;;;10.00;1.50;;;9.30;99.90;;;;;;4978911;28;81258;-75
2022/04/08 11:33:17;;;;;;;10.88;1.30;;;9.10;99.90;;;;;;4988725;28;20049;-75
2022/04/08 11:35:44;;;;;;;10.32;1.42;;;9.10;99.90;;;;;;4972428;28;261369;-75
2022/04/08 11:38:18;;;;;;;9.68;1.35;;;9.20;99.90;;;;;;5016667;28;20072;-75
2022/04/08 11:40:45;;;;;;;10.02;1.35;;;9.70;99.90;;;;;;4960341;28;180998;-74
2022/04/08 11:43:15;;;;;;;10.18;1.20;;;10.00;99.90;;;;;;5025103;28;20534;-74
2022/04/08 11:45:46;;;;;;;8.68;1.30;;;10.00;99.90;;;;;;4966410;28;53284;-75
2022/04/08 11:48:15;;;;;;;9.83;1.40;;;10.00;99.90;;;;;;5021659;28;20053;-75
2022/04/08 11:50:45;;;;;;;6.78;1.23;;;9.90;98.80;;;;;;4962435;28;228651;-75
2022/04/08 11:53:16;;;;;;;11.43;1.60;;;10.00;99.90;;;;;;5015734;28;20053;-74
2022/04/08 11:56:01;;;;;;;9.15;1.30;;;10.10;99.40;;;;;;5000394;28;20045;-75
2022/04/08 11:58:28;;;;;;;9.20;1.20;;;10.10;98.80;;;;;;5010628;28;20050;-75
2022/04/08 12:00:55;;;;;;;7.05;1.17;;;10.00;98.60;;;;;;4965015;28;20050;-75
2022/04/08 12:03:26;;;;;;;8.15;1.40;;;10.70;98.60;;;;;;5012766;28;20068;-75
2022/04/08 12:05:52;;;;;;;7.20;1.10;;;11.20;98.60;;;;;;4994546;28;20037;-76
2022/04/08 12:08:19;;;;;;;8.65;1.27;;;11.40;96.30;;;;;;5001380;28;20069;-75
2022/04/08 12:10:51;;;;;;;8.38;1.23;;;11.90;98.40;;;;;;4994639;28;20050;-75
2022/04/08 12:13:21;;;;;;;7.32;1.13;;;12.50;96.50;;;;;;5014296;28;20573;-75
2022/04/08 12:15:52;;;;;;;9.20;1.45;;;12.90;96.90;;;;;;4996599;28;20556;-75
2022/04/08 12:18:28;;;;;;;10.23;1.40;;;12.90;96.00;;;;;;5015030;28;20072;-75
2022/04/08 12:20:57;;;;;;;8.13;1.45;;;12.50;92.40;;;;;;4960696;28;248297;-75
2022/04/08 12:23:25;;;;;;;10.23;1.20;;;12.40;92.40;;;;;;4993352;28;20422;-74
2022/04/08 12:25:57;;;;;;;8.82;1.48;;;12.10;83.60;;;;;;4962724;28;202100;-75
2022/04/08 12:28:25;;;;;;;7.63;1.20;;;12.20;87.50;;;;;;5026090;28;20049;-75
2022/04/08 12:30:52;;;;;;;8.52;1.27;;;12.50;91.00;;;;;;4971223;28;275056;-73
2022/04/08 12:33:18;;;;;;;6.68;1.27;;;13.00;83.80;;;;;;5012978;28;20105;-74
2022/04/08 12:35:45;;;;;;;8.48;1.33;;;13.20;83.90;;;;;;4958884;28;176774;-75
2022/04/08 12:38:14;;;;;;;7.35;1.08;;;13.00;75.40;;;;;;4996832;28;20522;-77
2022/04/08 12:40:42;;;;;;;7.28;1.10;;;13.40;78.80;;;;;;4975221;28;127494;-77
2022/04/08 12:43:09;;;;;;;8.80;1.15;;;13.60;71.20;;;;;;4991594;28;20061;-74
2022/04/08 12:45:35;;;;;;;10.27;1.40;;;13.70;69.60;;;;;;4970209;28;271164;-75
2022/04/08 12:48:01;;;;;;;7.80;1.17;;;12.80;75.00;;;;;;5031193;28;20049;-74